Time;durP1;ratioP1;P1;durP2;ratioP2;P2;SDS_P1;SDS_P2;PMS_P1;PMS_P2;Temp;Humidity;BMP_temperature;BMP_pressure;BME280_temperature;BME280_humidity;BME280_pressure;Samples;Min_cycle;Max_cycle;Signal;HPM_P1;HPM_P2
2022/10/12 00:01:55;;;;;;;;;9.33;9.33;;;;;14.20;54.02;101878.63;4961518;28;47345;-71
2022/10/12 00:04:20;;;;;;;;;10.67;9.00;;;;;14.07;54.07;101867.38;4960487;28;46478;-72
2022/10/12 00:06:45;;;;;;;;;7.33;7.33;;;;;14.18;54.22;101877.91;4960284;28;45485;-72
2022/10/12 00:09:11;;;;;;;;;8.00;7.00;;;;;13.65;53.90;101787.41;4960309;28;45819;-71
2022/10/12 00:11:39;;;;;;;;;9.33;8.67;;;;;14.22;54.28;101892.72;4960601;28;45299;-72
2022/10/12 00:14:05;;;;;;;;;8.33;8.33;;;;;14.15;54.56;101880.88;4958669;28;45517;-72
2022/10/12 00:16:30;;;;;;;;;9.00;7.67;;;;;14.16;54.53;101877.22;4942682;28;45719;-71
2022/10/12 00:18:56;;;;;;;;;9.00;7.00;;;;;14.19;54.30;101876.94;4957987;28;45810;-70
2022/10/12 00:21:23;;;;;;;;;9.00;7.00;;;;;14.19;54.31;101887.63;4960267;28;45517;-73
2022/10/12 00:23:49;;;;;;;;;7.00;5.00;;;;;14.11;54.31;101879.47;4959223;28;46519;-73
2022/10/12 00:26:20;;;;;;;;;10.00;8.33;;;;;14.20;54.14;101892.00;4959938;28;45547;-70
2022/10/12 00:28:46;;;;;;;;;9.67;6.33;;;;;14.16;54.10;101882.56;4960121;28;45266;-72
2022/10/12 00:31:15;;;;;;;;;10.00;7.33;;;;;14.27;54.09;101901.19;4960027;28;45529;-71
2022/10/12 00:33:41;;;;;;;;;10.33;7.67;;;;;13.75;54.27;101806.13;4959851;28;45517;-72
2022/10/12 00:36:16;;;;;;;;;7.67;7.33;;;;;14.29;54.11;101891.19;4959687;28;45466;-71
2022/10/12 00:38:42;;;;;;;;;10.00;8.33;;;;;14.28;54.24;101902.88;4959903;28;45497;-70
2022/10/12 00:41:08;;;;;;;;;7.00;7.00;;;;;13.97;54.13;101842.44;4959909;28;45332;-71
2022/10/12 00:43:38;;;;;;;;;9.67;8.67;;;;;13.52;54.21;101764.59;4959529;28;46687;-72
2022/10/12 00:46:17;;;;;;;;;8.67;7.00;;;;;14.32;54.10;101893.56;4959591;28;45545;-73
2022/10/12 00:48:46;;;;;;;;;7.00;6.00;;;;;14.29;54.33;101899.22;4959520;28;45441;-72
2022/10/12 00:51:12;;;;;;;;;5.67;5.67;;;;;14.19;54.44;101882.28;4959900;28;45450;-71
2022/10/12 00:53:45;;;;;;;;;9.00;5.67;;;;;14.21;54.78;101898.19;4958079;28;47456;-72
2022/10/12 00:56:17;;;;;;;;;7.00;5.67;;;;;13.97;54.64;101850.47;4959313;28;45272;-71
2022/10/12 00:58:45;;;;;;;;;7.00;6.00;;;;;14.09;54.77;101877.94;4959420;28;45252;-72
2022/10/12 01:01:11;;;;;;;;;9.00;6.33;;;;;14.16;54.77;101882.56;4959518;28;45462;-72
2022/10/12 01:03:36;;;;;;;;;6.00;6.00;;;;;14.07;54.69;101856.69;4959156;28;46531;-69
2022/10/12 01:06:02;;;;;;;;;11.67;8.00;;;;;14.06;54.64;101857.66;4959239;28;45277;-73
2022/10/12 01:08:29;;;;;;;;;8.33;8.00;;;;;13.79;54.73;101814.69;4959539;28;45311;-72
2022/10/12 01:10:54;;;;;;;;;6.67;6.67;;;;;14.14;54.90;101863.16;4959543;28;45339;-73
2022/10/12 01:13:19;;;;;;;;;7.00;6.67;;;;;14.14;55.22;101878.34;4959329;28;45977;-71
2022/10/12 01:15:50;;;;;;;;;8.33;7.33;;;;;14.22;55.05;101886.53;4958969;28;45237;-71
2022/10/12 01:18:22;;;;;;;;;6.33;6.33;;;;;13.93;54.96;101841.03;4959024;28;45227;-72
2022/10/12 01:20:51;;;;;;;;;7.67;7.33;;;;;14.19;55.21;101876.94;4959250;28;45497;-71
2022/10/12 01:23:16;;;;;;;;;9.33;8.00;;;;;13.60;54.86;101783.44;4958528;28;46074;-72
2022/10/12 01:26:03;;;;;;;;;8.00;6.67;;;;;14.16;55.00;101879.91;4957646;28;45276;-72
2022/10/12 01:29:00;;;;;;;;;7.67;5.33;;;;;13.86;55.03;101830.06;4958988;28;45580;-72
2022/10/12 01:31:48;;;;;;;;;12.00;10.00;;;;;14.05;55.39;101864.00;4959133;28;45396;-71
2022/10/12 01:34:51;;;;;;;;;7.67;6.67;;;;;14.13;55.51;101871.31;4957105;28;46582;-72
2022/10/12 01:37:25;;;;;;;;;7.67;6.00;;;;;14.14;55.06;101881.03;4958006;28;45412;-71
2022/10/12 01:39:55;;;;;;;;;8.67;7.67;;;;;14.12;55.15;101875.81;4958762;28;45634;-70
2022/10/12 01:42:28;;;;;;;;;8.67;8.67;;;;;13.84;55.49;101823.16;4966776;28;45260;-72
2022/10/12 01:45:21;;;;;;;;;9.00;7.67;;;;;14.07;55.84;101871.88;4958704;28;45663;-69
2022/10/12 01:47:51;;;;;;;;;11.00;9.00;;;;;13.68;55.43;101803.16;4957988;28;45402;-71
2022/10/12 01:50:20;;;;;;;;;11.67;9.33;;;;;13.93;55.55;101865.94;4958618;28;45286;-71
2022/10/12 01:52:51;;;;;;;;;10.33;9.67;;;;;14.06;55.42;101870.19;4941390;28;45596;-71
2022/10/12 01:55:55;;;;;;;;;10.33;8.00;;;;;13.80;55.42;101821.72;4958525;28;46857;-72
2022/10/12 01:58:46;;;;;;;;;10.33;10.33;;;;;14.06;55.65;101865.69;4954940;28;45407;-72
2022/10/12 02:01:28;;;;;;;;;6.67;4.67;;;;;14.02;55.78;101864.28;4958506;28;45271;-72
2022/10/12 02:04:35;;;;;;;;;9.67;7.67;;;;;14.02;55.90;101869.63;4960200;28;45477;-70
2022/10/12 02:07:07;;;;;;;;;11.67;9.67;;;;;13.81;56.04;101840.31;4958334;28;46568;-71
2022/10/12 02:09:35;;;;;;;;;12.33;9.33;;;;;13.93;55.94;101867.78;4958151;28;45335;-70
2022/10/12 02:12:08;;;;;;;;;9.67;8.67;;;;;13.76;56.24;101831.00;4957794;28;45556;-71
2022/10/12 02:14:45;;;;;;;;;12.33;9.67;;;;;13.59;56.40;101809.31;4958639;28;45477;-71
2022/10/12 02:17:14;;;;;;;;;7.33;7.33;;;;;13.97;56.08;101861.16;4958408;28;45772;-70
2022/10/12 02:19:45;;;;;;;;;8.67;7.67;;;;;13.07;56.23;101707.13;4958404;28;45280;-71
2022/10/12 02:22:13;;;;;;;;;13.67;9.33;;;;;13.80;55.98;101835.09;4958287;28;45363;-70
2022/10/12 02:24:41;;;;;;;;;10.67;10.00;;;;;13.80;56.20;101838.63;4959725;28;45602;-72
2022/10/12 02:27:10;;;;;;;;;14.67;8.33;;;;;13.94;56.09;101864.13;4959136;28;46006;-70
2022/10/12 02:29:38;;;;;;;;;11.00;10.33;;;;;13.90;55.95;101860.88;4940762;28;45433;-72
2022/10/12 02:32:13;;;;;;;;;9.67;9.67;;;;;13.86;56.21;101846.09;4958031;28;45336;-71
2022/10/12 02:34:53;;;;;;;;;10.33;9.33;;;;;13.79;56.13;101838.75;4958353;28;45193;-72
2022/10/12 02:37:51;;;;;;;;;10.33;7.67;;;;;13.87;56.36;101844.28;4958173;28;46488;-71
2022/10/12 02:40:35;;;;;;;;;13.00;10.00;;;;;13.88;56.02;101840.63;4956915;28;45398;-70
2022/10/12 02:43:20;;;;;;;;;12.33;10.00;;;;;13.76;56.30;101815.81;4959377;28;45344;-69
2022/10/12 02:45:48;;;;;;;;;10.67;9.00;;;;;13.73;56.20;101820.59;4961707;28;45446;-71
2022/10/12 02:48:22;;;;;;;;;11.00;10.00;;;;;13.52;56.57;101781.47;4961293;28;45652;-71
2022/10/12 02:50:50;;;;;;;;;9.33;9.33;;;;;13.82;56.31;101825.97;4961240;28;45295;-72
2022/10/12 02:53:16;;;;;;;;;10.67;9.33;;;;;13.71;56.46;101804.72;4961254;28;45251;-72
2022/10/12 02:55:55;;;;;;;;;11.00;10.33;;;;;13.43;56.24;101763.63;4961592;28;45184;-72
2022/10/12 02:58:20;;;;;;;;;10.33;9.00;;;;;13.62;56.13;101798.38;4961267;28;45521;-71
2022/10/12 03:00:46;;;;;;;;;10.33;9.33;;;;;13.68;56.30;101810.34;4959585;28;45446;-69
2022/10/12 03:03:11;;;;;;;;;13.00;11.00;;;;;13.47;56.44;101783.72;4961291;28;45370;-72
2022/10/12 03:05:37;;;;;;;;;11.67;10.33;;;;;13.72;56.43;101813.56;4961621;28;45439;-71
2022/10/12 03:08:03;;;;;;;;;13.00;10.33;;;;;13.45;56.53;101775.00;4960723;28;45958;-70
2022/10/12 03:10:28;;;;;;;;;12.33;11.67;;;;;13.52;56.54;101781.47;4960647;28;45644;-72
2022/10/12 03:12:54;;;;;;;;;11.33;9.33;;;;;13.72;56.01;101813.56;4961267;28;45372;-72
2022/10/12 03:15:20;;;;;;;;;9.00;8.00;;;;;13.54;56.37;101792.88;4976193;28;45289;-71
2022/10/12 03:17:45;;;;;;;;;8.67;8.67;;;;;13.43;56.63;101778.81;4960818;28;46185;-72
2022/10/12 03:20:11;;;;;;;;;8.00;7.00;;;;;13.52;56.60;101808.19;4960925;28;45222;-72
2022/10/12 03:22:36;;;;;;;;;12.00;9.67;;;;;13.59;56.53;101821.84;4960757;28;45558;-70
2022/10/12 03:25:02;;;;;;;;;9.00;9.00;;;;;13.42;56.82;101796.66;4975753;28;45273;-73
2022/10/12 03:27:27;;;;;;;;;15.33;13.67;;;;;13.07;56.70;101733.81;4960439;28;45759;-72
2022/10/12 03:29:52;;;;;;;;;8.67;7.67;;;;;13.27;56.65;101766.81;4960832;28;45533;-74
2022/10/12 03:32:18;;;;;;;;;9.33;9.00;;;;;13.44;56.77;101783.16;4960967;28;45540;-72
2022/10/12 03:34:43;;;;;;;;;11.33;10.33;;;;;13.59;56.71;101820.00;4960737;28;45444;-73
2022/10/12 03:37:09;;;;;;;;;15.00;13.67;;;;;13.35;56.58;101776.78;4960729;28;51058;-72
2022/10/12 03:39:34;;;;;;;;;12.00;9.67;;;;;13.40;56.95;101782.56;4960551;28;45532;-71
2022/10/12 03:41:59;;;;;;;;;14.67;12.33;;;;;13.55;56.83;101817.75;4960404;28;45416;-71
2022/10/12 03:44:25;;;;;;;;;8.00;8.00;;;;;13.57;56.88;101824.66;4960796;28;45480;-72
2022/10/12 03:46:50;;;;;;;;;13.00;12.00;;;;;13.41;56.85;101786.91;4960405;28;46884;-71
2022/10/12 03:49:15;;;;;;;;;10.33;9.33;;;;;13.63;56.84;101821.44;4960367;28;45433;-71
2022/10/12 03:51:41;;;;;;;;;14.00;10.67;;;;;13.58;56.30;101821.00;4960497;28;45333;-71
2022/10/12 03:54:06;;;;;;;;;14.67;11.00;;;;;13.39;56.48;101779.03;4958984;28;45417;-72
2022/10/12 03:56:32;;;;;;;;;14.33;12.33;;;;;13.68;56.92;101826.38;4958699;28;53418;-71
2022/10/12 03:58:57;;;;;;;;;12.67;10.33;;;;;13.66;56.70;101820.31;4960113;28;45334;-72
2022/10/12 04:01:22;;;;;;;;;8.67;8.67;;;;;13.57;56.94;101805.94;4960072;28;45511;-72
2022/10/12 04:03:48;;;;;;;;;8.33;8.33;;;;;13.67;56.63;101827.34;4959281;28;45377;-72
2022/10/12 04:06:13;;;;;;;;;11.00;10.00;;;;;13.47;57.09;101783.72;4959612;28;57005;-72
2022/10/12 04:08:38;;;;;;;;;12.00;8.33;;;;;13.68;57.15;101826.38;4974500;28;45478;-72
2022/10/12 04:11:04;;;;;;;;;9.67;8.33;;;;;13.57;57.36;101799.75;4974107;28;45332;-73
2022/10/12 04:13:29;;;;;;;;;9.67;9.67;;;;;12.64;57.48;101650.53;4960399;28;45416;-73
2022/10/12 04:15:59;;;;;;;;;12.00;10.00;;;;;13.64;57.50;101817.78;4959743;28;45925;-71
2022/10/12 04:18:25;;;;;;;;;10.67;8.33;;;;;12.78;57.95;101679.50;4959789;28;45395;-71
2022/10/12 04:20:50;;;;;;;;;14.00;12.00;;;;;13.47;57.92;101788.22;4959562;28;54813;-73
2022/10/12 04:23:16;;;;;;;;;13.33;10.67;;;;;13.64;58.09;101820.47;4959544;28;45513;-73
2022/10/12 04:25:41;;;;;;;;;11.00;10.00;;;;;12.79;58.14;101682.03;4959801;28;46566;-71
2022/10/12 04:28:06;;;;;;;;;11.33;8.33;;;;;13.63;58.37;101829.47;4959503;28;45628;-73
2022/10/12 04:30:32;;;;;;;;;8.67;8.00;;;;;13.63;58.39;101831.28;4960173;28;45459;-71
2022/10/12 04:32:57;;;;;;;;;10.33;9.00;;;;;13.45;58.15;101800.88;4960421;28;45299;-73
2022/10/12 04:35:23;;;;;;;;;15.33;10.67;;;;;12.94;58.36;101722.53;4962117;28;46354;-73
2022/10/12 04:37:48;;;;;;;;;12.33;10.67;;;;;13.07;58.36;101757.84;4976270;28;46363;-73
2022/10/12 04:40:14;;;;;;;;;11.00;8.67;;;;;13.44;58.80;101813.38;4973769;28;45333;-71
2022/10/12 04:42:39;;;;;;;;;10.67;10.67;;;;;13.58;58.69;101845.03;4961134;28;45425;-71
2022/10/12 04:45:05;;;;;;;;;11.67;9.33;;;;;13.57;58.76;101842.50;4961604;28;47308;-71
2022/10/12 04:47:32;;;;;;;;;11.33;9.00;;;;;13.20;58.97;101780.81;4960038;28;45715;-71
2022/10/12 04:49:58;;;;;;;;;13.33;10.00;;;;;13.42;58.83;101818.03;4959670;28;45341;-71
2022/10/12 04:52:23;;;;;;;;;10.67;10.33;;;;;13.53;58.81;101830.41;4959784;28;45246;-72
2022/10/12 04:54:48;;;;;;;;;15.00;11.33;;;;;12.76;59.04;101717.00;4959323;28;46689;-72
2022/10/12 04:57:14;;;;;;;;;11.33;10.00;;;;;13.39;58.94;101818.28;4974334;28;45425;-71
2022/10/12 04:59:39;;;;;;;;;14.00;11.67;;;;;13.48;58.86;101841.50;4958186;28;45428;-74
2022/10/12 05:02:04;;;;;;;;;9.67;9.67;;;;;13.30;59.09;101798.56;4958601;28;45402;-73
2022/10/12 05:04:30;;;;;;;;;12.33;10.67;;;;;13.50;59.21;101818.19;4959142;28;46307;-72
2022/10/12 05:06:55;;;;;;;;;11.00;11.00;;;;;13.08;59.40;101764.88;4958719;28;45333;-72
2022/10/12 05:09:20;;;;;;;;;11.00;11.00;;;;;13.29;59.19;101786.22;4959059;28;45500;-71
2022/10/12 05:11:46;;;;;;;;;9.00;9.00;;;;;13.50;59.25;101836.88;4942270;28;45348;-71
2022/10/12 05:14:11;;;;;;;;;15.00;10.67;;;;;13.44;59.18;101816.06;4959355;28;45576;-73
2022/10/12 05:16:37;;;;;;;;;10.33;9.33;;;;;13.42;59.38;101803.81;4957607;28;45464;-72
2022/10/12 05:19:02;;;;;;;;;8.67;8.67;;;;;13.48;59.06;101814.78;4959152;28;45240;-70
2022/10/12 05:21:27;;;;;;;;;10.67;10.67;;;;;13.41;58.42;101808.28;4958939;28;45463;-71
2022/10/12 05:23:53;;;;;;;;;12.33;11.00;;;;;13.33;58.99;101798.31;4958375;28;45629;-72
2022/10/12 05:26:18;;;;;;;;;13.00;12.33;;;;;13.46;59.20;101813.25;4959210;28;45429;-70
2022/10/12 05:28:44;;;;;;;;;12.33;11.33;;;;;13.48;59.03;101820.13;4958951;28;45328;-76
2022/10/12 05:31:10;;;;;;;;;13.00;11.00;;;;;13.49;59.13;101835.19;4959204;28;45430;-71
2022/10/12 05:33:35;;;;;;;;;13.33;10.00;;;;;13.36;59.38;101815.88;4941111;28;48553;-73
2022/10/12 05:36:00;;;;;;;;;12.00;11.67;;;;;13.36;59.46;101824.72;4958557;28;45265;-72
2022/10/12 05:38:26;;;;;;;;;15.00;11.67;;;;;13.35;59.66;101817.69;4958729;28;45358;-72
2022/10/12 05:40:51;;;;;;;;;12.00;12.00;;;;;12.80;59.70;101730.91;4957728;28;45455;-72
2022/10/12 05:43:17;;;;;;;;;14.00;11.00;;;;;13.43;59.82;101833.06;4972661;28;47559;-72
2022/10/12 05:45:42;;;;;;;;;13.00;11.00;;;;;13.44;59.68;101837.44;4977658;28;45335;-71
2022/10/12 05:48:07;;;;;;;;;12.00;11.00;;;;;13.15;59.64;101788.38;4977613;28;45392;-73
2022/10/12 05:50:33;;;;;;;;;11.67;11.00;;;;;13.29;59.94;101812.06;4976070;28;45363;-74
2022/10/12 05:52:59;;;;;;;;;14.00;13.00;;;;;13.40;59.95;101830.63;4960694;28;45755;-73
2022/10/12 05:55:24;;;;;;;;;15.67;13.00;;;;;13.13;59.92;101785.00;4961226;28;45613;-75
2022/10/12 05:57:49;;;;;;;;;13.33;12.33;;;;;13.16;60.46;101782.88;4973163;28;45402;-71
2022/10/12 06:00:15;;;;;;;;;16.33;14.67;;;;;13.36;60.08;101818.53;4958471;28;45330;-73
2022/10/12 06:02:40;;;;;;;;;13.67;13.67;;;;;11.56;59.88;101512.38;4968767;28;47306;-73
2022/10/12 06:05:06;;;;;;;;;12.67;11.00;;;;;13.15;60.27;101783.88;4977703;28;45331;-71
2022/10/12 06:07:31;;;;;;;;;12.67;11.00;;;;;13.23;60.16;101799.25;4978186;28;45358;-73
2022/10/12 06:09:57;;;;;;;;;12.33;12.33;;;;;13.13;60.14;101774.31;4978225;28;45439;-73
2022/10/12 06:12:23;;;;;;;;;15.67;15.33;;;;;13.38;60.31;101821.91;4976380;28;55365;-72
2022/10/12 06:14:48;;;;;;;;;15.33;14.33;;;;;13.16;60.60;101795.41;4978043;28;45549;-71
2022/10/12 06:17:13;;;;;;;;;17.00;16.00;;;;;13.16;60.40;101790.91;4977124;28;45382;-72
2022/10/12 06:19:39;;;;;;;;;16.00;13.00;;;;;13.29;60.79;101810.25;4979797;28;45340;-70
2022/10/12 06:22:04;;;;;;;;;12.00;12.00;;;;;13.36;61.19;101837.25;4978561;28;45583;-70
2022/10/12 06:24:30;;;;;;;;;15.00;12.67;;;;;13.08;60.66;101783.56;4969997;28;45949;-75
2022/10/12 06:26:55;;;;;;;;;14.67;13.67;;;;;13.33;60.75;101814.31;4978237;28;45311;-72
2022/10/12 06:29:23;;;;;;;;;16.00;14.67;;;;;13.43;60.55;101834.91;4977927;28;45317;-77
2022/10/12 06:31:50;;;;;;;;;20.00;15.67;;;;;13.46;60.57;101840.81;4977398;28;47385;-75
2022/10/12 06:34:15;;;;;;;;;17.67;17.67;;;;;13.50;60.73;101842.22;4961208;28;46545;-77
2022/10/12 06:36:41;;;;;;;;;22.00;16.00;;;;;12.75;60.15;101717.13;4978454;28;45542;-75
2022/10/12 06:39:07;;;;;;;;;13.00;13.00;;;;;13.53;60.03;101841.09;4959807;28;45301;-75
2022/10/12 06:41:33;;;;;;;;;21.33;18.67;;;;;13.58;59.85;101834.34;4976718;28;48092;-75
2022/10/12 06:43:58;;;;;;;;;26.00;22.33;;;;;13.66;59.57;101844.38;4978538;28;45512;-73
2022/10/12 06:46:23;;;;;;;;;19.33;18.33;;;;;13.80;59.81;101860.00;4976207;28;45919;-73
2022/10/12 06:48:49;;;;;;;;;20.33;17.67;;;;;13.65;59.55;101824.81;4977817;28;45261;-74
2022/10/12 06:51:14;;;;;;;;;22.33;19.00;;;;;13.75;59.25;101829.34;4968818;28;46363;-71
2022/10/12 06:53:39;;;;;;;;;17.67;16.33;;;;;13.15;59.21;101713.59;4960002;28;46179;-74
2022/10/12 06:56:09;;;;;;;;;21.33;18.67;;;;;14.05;59.19;101868.50;4957552;28;45188;-74
2022/10/12 06:58:35;;;;;;;;;19.33;15.67;;;;;13.74;58.78;101800.91;4957921;28;45466;-76
2022/10/12 07:01:05;;;;;;;;;23.00;19.33;;;;;14.14;58.65;101879.19;4958111;28;45984;-75
2022/10/12 07:03:31;;;;;;;;;20.67;19.00;;;;;14.09;58.69;101857.38;4946504;28;45343;-74
2022/10/12 07:06:08;;;;;;;;;19.00;17.33;;;;;14.13;58.54;101841.91;4970706;28;45213;-76
2022/10/12 07:08:33;;;;;;;;;19.00;18.67;;;;;14.44;58.21;101864.88;4959047;28;45330;-75
2022/10/12 07:11:04;;;;;;;;;23.00;19.67;;;;;15.10;57.19;101864.03;4968832;28;46490;-76
2022/10/12 07:13:30;;;;;;;;;19.67;16.67;;;;;15.00;55.13;101726.63;4958589;28;45288;-76
2022/10/12 07:15:55;;;;;;;;;20.67;17.67;;;;;16.31;53.14;101863.78;4973130;28;45279;-75
2022/10/12 07:18:21;;;;;;;;;13.67;12.67;;;;;16.51;51.75;101824.19;4957421;28;45458;-74
2022/10/12 07:20:46;;;;;;;;;19.33;16.33;;;;;16.81;50.26;101802.28;4957334;28;47215;-75
2022/10/12 07:23:12;;;;;;;;;13.00;11.00;;;;;17.14;49.60;101787.16;4971397;28;45429;-75
2022/10/12 07:25:37;;;;;;;;;19.33;16.00;;;;;18.06;48.58;101860.78;4959776;28;45447;-75
2022/10/12 07:28:05;;;;;;;;;20.00;13.67;;;;;18.47;47.04;101850.88;4958177;28;45354;-77
2022/10/12 07:30:30;;;;;;;;;26.33;24.00;;;;;18.44;46.21;101759.66;4958216;28;47071;-74
2022/10/12 07:32:56;;;;;;;;;16.67;16.67;;;;;19.22;44.45;101785.88;4964913;28;45674;-78
2022/10/12 07:35:21;;;;;;;;;18.33;17.00;;;;;19.87;43.55;101809.84;4956720;28;46391;-75
2022/10/12 07:37:49;;;;;;;;;18.67;18.00;;;;;20.04;42.98;101792.53;4955660;28;45326;-74
2022/10/12 07:40:15;;;;;;;;;19.00;18.33;;;;;20.85;42.09;101872.03;4940636;28;46060;-75
2022/10/12 07:42:40;;;;;;;;;19.33;14.67;;;;;21.08;41.10;101847.63;4940455;28;45770;-76
2022/10/12 07:45:06;;;;;;;;;13.00;13.00;;;;;21.53;40.72;101877.19;4941545;28;45496;-74
2022/10/12 07:47:31;;;;;;;;;15.00;14.00;;;;;21.23;40.12;101794.38;4940459;28;45201;-75
2022/10/12 07:49:57;;;;;;;;;16.67;14.67;;;;;21.19;39.21;101722.75;4941207;28;45782;-75
2022/10/12 07:52:22;;;;;;;;;18.00;15.67;;;;;22.23;38.60;101835.13;4939591;28;45453;-74
2022/10/12 07:54:47;;;;;;;;;16.67;15.67;;;;;22.84;37.01;101843.56;4939983;28;45350;-73
2022/10/12 07:57:13;;;;;;;;;16.33;16.33;;;;;23.85;36.48;101884.63;4956731;28;45251;-76
2022/10/12 07:59:38;;;;;;;;;20.67;17.00;;;;;24.22;34.98;101837.84;4941661;28;45535;-80
2022/10/12 08:02:03;;;;;;;;;18.67;17.00;;;;;24.86;34.00;101882.69;4944827;28;45517;-78
2022/10/12 08:04:29;;;;;;;;;17.00;15.00;;;;;25.27;33.51;101881.59;4960518;28;45535;-78
2022/10/12 08:06:54;;;;;;;;;21.00;19.33;;;;;25.54;32.93;101885.88;4961987;28;45400;-78
2022/10/12 08:09:20;;;;;;;;;19.67;18.00;;;;;25.33;32.84;101831.72;4961663;28;46136;-75
2022/10/12 08:11:45;;;;;;;;;21.33;19.33;;;;;25.16;32.98;101806.84;4961953;28;45283;-74
2022/10/12 08:14:13;;;;;;;;;17.00;17.00;;;;;25.09;32.50;101774.25;4960744;28;45413;-76
2022/10/12 08:16:40;;;;;;;;;18.33;16.67;;;;;25.92;32.17;101888.69;4962883;28;45557;-75
2022/10/12 08:19:05;;;;;;;;;19.67;19.67;;;;;25.81;31.82;101855.81;4958570;28;46891;-76
2022/10/12 08:21:30;;;;;;;;;22.67;20.00;;;;;26.06;31.72;101882.09;4972548;28;45429;-77
2022/10/12 08:23:56;;;;;;;;;30.33;22.67;;;;;25.91;31.90;101876.09;4975961;28;45286;-75
2022/10/12 08:26:21;;;;;;;;;18.33;16.67;;;;;25.97;31.59;101893.47;4961507;28;45429;-78
2022/10/12 08:28:46;;;;;;;;;18.33;17.67;;;;;25.26;31.77;101776.47;4975995;28;47139;-77
2022/10/12 08:31:14;;;;;;;;;17.33;17.00;;;;;26.04;31.78;101891.56;4976358;28;50345;-76
2022/10/12 08:33:39;;;;;;;;;18.67;18.00;;;;;25.75;31.65;101828.41;4963564;28;45436;-76
2022/10/12 08:36:06;;;;;;;;;18.33;17.00;;;;;26.19;30.91;101866.69;4976619;28;45556;-76
2022/10/12 08:38:32;;;;;;;;;18.33;18.33;;;;;26.28;31.02;101879.88;4961878;28;45554;-77
2022/10/12 08:41:25;;;;;;;;;24.67;20.67;;;;;25.98;31.54;101885.06;4959143;28;45440;-75
2022/10/12 08:43:57;;;;;;;;;20.67;20.67;;;;;25.82;31.56;101892.91;4960866;28;45506;-76
2022/10/12 08:46:25;;;;;;;;;27.33;20.67;;;;;25.71;31.83;101889.81;4961360;28;45355;-76
2022/10/12 08:48:55;;;;;;;;;19.33;19.33;;;;;25.05;32.12;101830.16;4960377;28;46355;-77
2022/10/12 08:51:26;;;;;;;;;22.00;21.00;;;;;25.28;32.40;101894.16;4959358;28;45588;-73
2022/10/12 08:54:06;;;;;;;;;33.33;27.67;;;;;25.07;32.46;101882.47;4960087;28;45334;-76
2022/10/12 08:56:35;;;;;;;;;26.33;26.33;;;;;25.13;32.19;101895.22;4960738;28;45492;-75
2022/10/12 08:59:03;;;;;;;;;28.00;23.00;;;;;24.95;32.70;101905.88;4960293;28;45654;-76
2022/10/12 09:01:45;;;;;;;;;28.00;23.00;;;;;24.94;32.92;101906.09;4960089;28;45513;-73
2022/10/12 09:04:22;;;;;;;;;24.67;21.00;;;;;25.08;32.42;101908.63;4960751;28;45409;-76
2022/10/12 09:07:35;;;;;;;;;31.67;25.67;;;;;25.20;32.25;101905.25;4959678;28;45305;-76
2022/10/12 09:10:01;;;;;;;;;24.33;22.67;;;;;25.56;32.02;101905.56;4950604;28;45499;-75
2022/10/12 09:12:31;;;;;;;;;24.67;22.00;;;;;26.02;31.68;101893.63;4958817;28;45275;-76
2022/10/12 09:15:01;;;;;;;;;22.33;20.33;;;;;26.11;30.96;101840.56;4960019;28;45472;-76
2022/10/12 09:17:37;;;;;;;;;25.33;24.00;;;;;26.95;30.43;101897.38;4974852;28;45484;-76
2022/10/12 09:20:20;;;;;;;;;29.67;26.67;;;;;25.39;29.98;101573.06;4958288;28;45549;-75
2022/10/12 09:22:54;;;;;;;;;26.67;25.33;;;;;26.74;29.28;101783.19;4976106;28;45574;-76
2022/10/12 09:25:24;;;;;;;;;26.00;21.00;;;;;27.23;30.00;101839.59;4978999;28;45387;-75
2022/10/12 09:27:50;;;;;;;;;26.67;22.33;;;;;26.98;29.63;101825.97;4961187;28;45171;-77
2022/10/12 09:30:18;;;;;;;;;24.33;21.33;;;;;26.96;30.39;101844.47;4975269;28;45623;-80
2022/10/12 09:32:57;;;;;;;;;22.33;21.33;;;;;26.79;30.57;101887.03;4967959;28;45378;-78
2022/10/12 09:35:23;;;;;;;;;32.67;27.33;;;;;25.62;31.39;101741.28;4960951;28;45378;-75
2022/10/12 09:37:52;;;;;;;;;29.33;24.67;;;;;25.18;31.72;101714.94;4963969;28;45486;-78
2022/10/12 09:40:27;;;;;;;;;30.33;29.00;;;;;25.25;32.17;101769.38;4959972;28;45719;-79
2022/10/12 09:42:54;;;;;;;;;31.00;26.33;;;;;24.98;32.67;101766.69;4958592;28;45485;-76
2022/10/12 09:45:21;;;;;;;;;30.33;26.00;;;;;25.09;33.39;101844.16;4943117;28;45326;-79
2022/10/12 09:48:09;;;;;;;;;27.00;25.00;;;;;24.91;34.00;101874.72;4962561;28;45335;-80
2022/10/12 09:50:43;;;;;;;;;33.67;29.67;;;;;23.47;35.01;101702.34;4959136;28;45951;-74
2022/10/12 09:53:32;;;;;;;;;29.33;28.67;;;;;24.16;35.06;101854.16;4959126;28;45233;-77
2022/10/12 09:56:07;;;;;;;;;26.33;24.33;;;;;23.70;36.32;101857.59;4960317;28;45517;-76
2022/10/12 09:58:42;;;;;;;;;28.67;26.00;;;;;23.48;37.01;101867.72;4965079;28;45515;-75
2022/10/12 10:01:17;;;;;;;;;31.67;28.00;;;;;22.74;37.49;101799.66;4962324;28;46145;-75
2022/10/12 10:03:47;;;;;;;;;32.33;29.33;;;;;22.91;37.69;101862.59;4959565;28;45238;-77
2022/10/12 10:06:14;;;;;;;;;39.00;31.00;;;;;22.68;37.79;101863.66;4959436;28;45389;-76
2022/10/12 10:08:44;;;;;;;;;30.00;26.67;;;;;21.63;38.84;101729.94;4959346;28;45183;-77
2022/10/12 10:11:25;;;;;;;;;33.00;30.33;;;;;22.22;39.19;101843.41;4973655;28;46337;-75
2022/10/12 10:13:54;;;;;;;;;28.67;25.67;;;;;21.53;40.41;101743.78;4958895;28;45246;-75
2022/10/12 10:16:23;;;;;;;;;25.00;22.33;;;;;21.89;40.90;101835.78;4959144;28;45491;-75
2022/10/12 10:18:55;;;;;;;;;31.67;27.33;;;;;21.47;41.69;101774.31;4957733;28;45589;-76
2022/10/12 10:21:28;;;;;;;;;64.33;50.33;;;;;21.33;41.61;101780.56;4958601;28;46301;-74
2022/10/12 10:23:57;;;;;;;;;31.00;26.00;;;;;20.90;41.95;101713.66;4957254;28;45466;-77
2022/10/12 10:26:25;;;;;;;;;20.33;18.67;;;;;21.84;41.98;101873.41;4958827;28;45442;-75
2022/10/12 10:28:56;;;;;;;;;28.67;25.67;;;;;21.81;41.91;101857.53;4957904;28;45529;-73
2022/10/12 10:31:26;;;;;;;;;26.67;23.67;;;;;21.70;42.17;101863.47;4957139;28;45524;-74
2022/10/12 10:34:09;;;;;;;;;28.33;26.67;;;;;21.60;42.67;101854.78;4957888;28;45348;-72
2022/10/12 10:36:53;;;;;;;;;28.33;25.33;;;;;21.56;43.06;101859.75;4957988;28;45492;-76
2022/10/12 10:39:21;;;;;;;;;26.33;22.33;;;;;21.48;43.44;101847.16;4951160;28;45472;-72
2022/10/12 10:41:47;;;;;;;;;23.00;20.00;;;;;21.35;43.20;101829.91;4958860;28;45711;-73
2022/10/12 10:44:26;;;;;;;;;29.33;22.67;;;;;21.19;43.69;101817.41;4959994;28;45535;-74
2022/10/12 10:47:00;;;;;;;;;20.67;20.67;;;;;21.36;44.09;101847.81;4960607;28;45487;-74
2022/10/12 10:49:40;;;;;;;;;23.00;20.67;;;;;21.23;44.17;101829.53;4959155;28;45399;-74
2022/10/12 10:52:18;;;;;;;;;25.33;21.33;;;;;21.28;44.63;101837.94;4959124;28;46688;-73
2022/10/12 10:54:44;;;;;;;;;22.33;20.00;;;;;21.29;44.51;101836.09;4960835;28;45239;-76
2022/10/12 10:57:18;;;;;;;;;21.00;19.00;;;;;21.27;44.40;101832.72;4960859;28;45364;-78
2022/10/12 11:00:10;;;;;;;;;20.67;19.33;;;;;21.20;44.84;101844.25;4960998;28;45265;-73
2022/10/12 11:02:55;;;;;;;;;23.67;22.33;;;;;20.32;44.91;101699.09;4974543;28;47527;-73
2022/10/12 11:05:28;;;;;;;;;32.00;25.67;;;;;21.09;44.78;101836.63;4963211;28;45539;-75
2022/10/12 11:07:56;;;;;;;;;28.67;27.67;;;;;20.72;44.73;101759.16;4963373;28;45545;-73
2022/10/12 11:10:27;;;;;;;;;27.67;25.67;;;;;21.23;44.72;101824.97;4962234;28;45326;-73
2022/10/12 11:13:02;;;;;;;;;17.00;16.00;;;;;21.49;44.29;101843.44;4943308;28;46498;-77
2022/10/12 11:15:34;;;;;;;;;19.00;19.00;;;;;19.15;44.39;101463.09;4941664;28;45495;-73
2022/10/12 11:18:10;;;;;;;;;22.33;19.67;;;;;21.02;44.49;101751.00;4957641;28;45481;-74
2022/10/12 11:20:44;;;;;;;;;19.33;18.00;;;;;21.43;43.93;101800.91;4960731;28;45454;-76
2022/10/12 11:23:47;;;;;;;;;24.00;21.67;;;;;21.64;43.67;101835.28;4945059;28;48369;-74
2022/10/12 11:26:24;;;;;;;;;18.00;18.00;;;;;21.45;44.28;101804.25;4961390;28;45491;-72